sensor_id;sensor_type;location;lat;lon;timestamp;temperature;humidity
35325;DHT22;35135;47.510;19.036;2022-07-26T00:01:33;29.80;35.00
35325;DHT22;35135;47.510;19.036;2022-07-26T00:04:02;29.80;35.10
35325;DHT22;35135;47.510;19.036;2022-07-26T00:06:31;29.80;35.10
35325;DHT22;35135;47.510;19.036;2022-07-26T00:09:00;29.70;35.00
35325;DHT22;35135;47.510;19.036;2022-07-26T00:11:30;29.80;35.10
35325;DHT22;35135;47.510;19.036;2022-07-26T00:14:00;29.70;35.00
35325;DHT22;35135;47.510;19.036;2022-07-26T00:16:29;29.70;35.00
35325;DHT22;35135;47.510;19.036;2022-07-26T00:19:02;29.70;35.00
35325;DHT22;35135;47.510;19.036;2022-07-26T00:21:32;29.70;35.00
35325;DHT22;35135;47.510;19.036;2022-07-26T00:24:07;29.70;35.00
35325;DHT22;35135;47.510;19.036;2022-07-26T00:26:36;29.70;35.10
35325;DHT22;35135;47.510;19.036;2022-07-26T00:29:09;29.70;35.00
35325;DHT22;35135;47.510;19.036;2022-07-26T00:31:39;29.70;35.00
35325;DHT22;35135;47.510;19.036;2022-07-26T00:34:08;29.70;35.00
35325;DHT22;35135;47.510;19.036;2022-07-26T00:36:37;29.70;35.00
35325;DHT22;35135;47.510;19.036;2022-07-26T00:39:06;29.70;35.10
35325;DHT22;35135;47.510;19.036;2022-07-26T00:41:39;29.70;35.10
35325;DHT22;35135;47.510;19.036;2022-07-26T00:44:07;29.70;35.20
35325;DHT22;35135;47.510;19.036;2022-07-26T00:46:34;29.70;35.20
35325;DHT22;35135;47.510;19.036;2022-07-26T00:49:03;29.70;35.20
35325;DHT22;35135;47.510;19.036;2022-07-26T00:51:31;29.70;35.10
35325;DHT22;35135;47.510;19.036;2022-07-26T00:54:04;29.70;35.20
35325;DHT22;35135;47.510;19.036;2022-07-26T00:56:32;29.70;35.20
35325;DHT22;35135;47.510;19.036;2022-07-26T00:59:02;29.70;35.30
35325;DHT22;35135;47.510;19.036;2022-07-26T01:01:32;29.70;35.40
35325;DHT22;35135;47.510;19.036;2022-07-26T01:04:01;29.70;35.50
35325;DHT22;35135;47.510;19.036;2022-07-26T01:06:33;29.70;35.80
35325;DHT22;35135;47.510;19.036;2022-07-26T01:09:05;29.70;35.50
35325;DHT22;35135;47.510;19.036;2022-07-26T01:11:34;29.70;35.70
35325;DHT22;35135;47.510;19.036;2022-07-26T01:14:02;29.60;35.60
35325;DHT22;35135;47.510;19.036;2022-07-26T01:16:31;29.60;35.50
35325;DHT22;35135;47.510;19.036;2022-07-26T01:18:59;29.70;36.20
35325;DHT22;35135;47.510;19.036;2022-07-26T01:21:29;29.70;35.70
35325;DHT22;35135;47.510;19.036;2022-07-26T01:24:03;29.70;35.60
35325;DHT22;35135;47.510;19.036;2022-07-26T01:26:32;29.70;35.60
35325;DHT22;35135;47.510;19.036;2022-07-26T01:29:05;29.60;35.60
35325;DHT22;35135;47.510;19.036;2022-07-26T01:31:40;29.70;35.60
35325;DHT22;35135;47.510;19.036;2022-07-26T01:34:11;29.60;35.60
35325;DHT22;35135;47.510;19.036;2022-07-26T01:36:40;29.60;35.60
35325;DHT22;35135;47.510;19.036;2022-07-26T01:39:09;29.60;35.60
35325;DHT22;35135;47.510;19.036;2022-07-26T01:41:43;29.60;35.60
35325;DHT22;35135;47.510;19.036;2022-07-26T01:44:22;29.60;35.60
35325;DHT22;35135;47.510;19.036;2022-07-26T01:46:52;29.60;35.60
35325;DHT22;35135;47.510;19.036;2022-07-26T01:49:21;29.60;35.60
35325;DHT22;35135;47.510;19.036;2022-07-26T01:51:51;29.60;35.60
35325;DHT22;35135;47.510;19.036;2022-07-26T01:54:24;29.60;35.60
35325;DHT22;35135;47.510;19.036;2022-07-26T01:56:52;29.60;35.60
35325;DHT22;35135;47.510;19.036;2022-07-26T01:59:22;29.50;35.50
35325;DHT22;35135;47.510;19.036;2022-07-26T02:01:50;29.60;35.60
35325;DHT22;35135;47.510;19.036;2022-07-26T02:04:18;29.60;35.60
35325;DHT22;35135;47.510;19.036;2022-07-26T02:07:06;29.50;35.50
35325;DHT22;35135;47.510;19.036;2022-07-26T02:09:37;29.60;35.50
35325;DHT22;35135;47.510;19.036;2022-07-26T02:12:13;29.60;35.60
35325;DHT22;35135;47.510;19.036;2022-07-26T02:14:42;29.50;35.60
35325;DHT22;35135;47.510;19.036;2022-07-26T02:17:11;29.60;35.80
35325;DHT22;35135;47.510;19.036;2022-07-26T02:19:40;29.50;35.80
35325;DHT22;35135;47.510;19.036;2022-07-26T02:22:07;29.50;35.60
35325;DHT22;35135;47.510;19.036;2022-07-26T02:24:35;29.50;35.60
35325;DHT22;35135;47.510;19.036;2022-07-26T02:27:05;29.60;35.70
35325;DHT22;35135;47.510;19.036;2022-07-26T02:29:34;29.50;35.60
35325;DHT22;35135;47.510;19.036;2022-07-26T02:32:03;29.50;35.60
35325;DHT22;35135;47.510;19.036;2022-07-26T02:34:32;29.50;35.80
35325;DHT22;35135;47.510;19.036;2022-07-26T02:37:01;29.50;35.80
35325;DHT22;35135;47.510;19.036;2022-07-26T02:39:30;29.50;35.80
35325;DHT22;35135;47.510;19.036;2022-07-26T02:42:00;29.50;35.80
35325;DHT22;35135;47.510;19.036;2022-07-26T02:44:28;29.50;35.70
35325;DHT22;35135;47.510;19.036;2022-07-26T02:46:56;29.50;35.70
35325;DHT22;35135;47.510;19.036;2022-07-26T02:49:26;29.50;35.70
35325;DHT22;35135;47.510;19.036;2022-07-26T02:51:54;29.50;35.90
35325;DHT22;35135;47.510;19.036;2022-07-26T02:54:26;29.40;35.70
35325;DHT22;35135;47.510;19.036;2022-07-26T02:57:00;29.50;35.70
35325;DHT22;35135;47.510;19.036;2022-07-26T02:59:29;29.50;35.90
35325;DHT22;35135;47.510;19.036;2022-07-26T03:01:58;29.40;35.80
35325;DHT22;35135;47.510;19.036;2022-07-26T03:04:27;29.50;35.90
35325;DHT22;35135;47.510;19.036;2022-07-26T03:06:56;29.40;36.00
35325;DHT22;35135;47.510;19.036;2022-07-26T03:09:28;29.50;36.10
35325;DHT22;35135;47.510;19.036;2022-07-26T03:11:56;29.40;36.00
35325;DHT22;35135;47.510;19.036;2022-07-26T03:14:25;29.40;36.10
35325;DHT22;35135;47.510;19.036;2022-07-26T03:16:53;29.40;36.20
35325;DHT22;35135;47.510;19.036;2022-07-26T03:19:22;29.40;36.20
35325;DHT22;35135;47.510;19.036;2022-07-26T03:21:51;29.40;36.30
35325;DHT22;35135;47.510;19.036;2022-07-26T03:24:25;29.40;36.40
35325;DHT22;35135;47.510;19.036;2022-07-26T03:26:54;29.40;36.40
35325;DHT22;35135;47.510;19.036;2022-07-26T03:29:22;29.30;36.40
35325;DHT22;35135;47.510;19.036;2022-07-26T03:31:50;29.40;36.50
35325;DHT22;35135;47.510;19.036;2022-07-26T03:34:24;29.40;36.50
35325;DHT22;35135;47.510;19.036;2022-07-26T03:36:53;29.40;36.60
35325;DHT22;35135;47.510;19.036;2022-07-26T03:39:21;29.40;36.50
35325;DHT22;35135;47.510;19.036;2022-07-26T03:41:56;29.40;36.60
35325;DHT22;35135;47.510;19.036;2022-07-26T03:44:25;29.40;36.60
35325;DHT22;35135;47.510;19.036;2022-07-26T03:46:53;29.40;36.70
35325;DHT22;35135;47.510;19.036;2022-07-26T03:49:31;29.30;36.60
35325;DHT22;35135;47.510;19.036;2022-07-26T03:51:58;29.40;36.70
35325;DHT22;35135;47.510;19.036;2022-07-26T03:54:28;29.30;36.50
35325;DHT22;35135;47.510;19.036;2022-07-26T03:57:02;29.30;36.60
35325;DHT22;35135;47.510;19.036;2022-07-26T03:59:34;29.30;36.60
35325;DHT22;35135;47.510;19.036;2022-07-26T04:02:03;29.30;37.10
35325;DHT22;35135;47.510;19.036;2022-07-26T04:04:32;29.30;37.20
35325;DHT22;35135;47.510;19.036;2022-07-26T04:07:07;29.30;37.30
35325;DHT22;35135;47.510;19.036;2022-07-26T04:09:36;29.30;37.10
35325;DHT22;35135;47.510;19.036;2022-07-26T04:12:05;29.30;36.90
35325;DHT22;35135;47.510;19.036;2022-07-26T04:14:33;29.30;37.00
35325;DHT22;35135;47.510;19.036;2022-07-26T04:17:10;29.30;36.90
35325;DHT22;35135;47.510;19.036;2022-07-26T04:19:46;29.30;37.00
35325;DHT22;35135;47.510;19.036;2022-07-26T04:22:15;29.20;36.90
35325;DHT22;35135;47.510;19.036;2022-07-26T04:24:45;29.20;37.00
35325;DHT22;35135;47.510;19.036;2022-07-26T04:27:14;29.30;37.20
35325;DHT22;35135;47.510;19.036;2022-07-26T04:29:44;29.20;37.30
35325;DHT22;35135;47.510;19.036;2022-07-26T04:32:12;29.20;37.30
35325;DHT22;35135;47.510;19.036;2022-07-26T04:34:39;29.20;37.60
35325;DHT22;35135;47.510;19.036;2022-07-26T04:37:10;29.20;37.60
35325;DHT22;35135;47.510;19.036;2022-07-26T04:39:39;29.20;37.80
35325;DHT22;35135;47.510;19.036;2022-07-26T04:42:07;29.20;37.50
35325;DHT22;35135;47.510;19.036;2022-07-26T04:44:37;29.20;37.70
35325;DHT22;35135;47.510;19.036;2022-07-26T04:47:09;29.20;37.90
35325;DHT22;35135;47.510;19.036;2022-07-26T04:49:38;29.20;37.80
35325;DHT22;35135;47.510;19.036;2022-07-26T04:52:07;29.20;37.30
35325;DHT22;35135;47.510;19.036;2022-07-26T04:54:35;29.10;37.10
35325;DHT22;35135;47.510;19.036;2022-07-26T04:57:03;29.10;36.90
35325;DHT22;35135;47.510;19.036;2022-07-26T04:59:32;29.10;36.90
35325;DHT22;35135;47.510;19.036;2022-07-26T05:02:01;29.00;36.90
35325;DHT22;35135;47.510;19.036;2022-07-26T05:04:32;29.00;36.90
35325;DHT22;35135;47.510;19.036;2022-07-26T05:06:59;28.90;36.90
35325;DHT22;35135;47.510;19.036;2022-07-26T05:09:28;28.90;36.80
35325;DHT22;35135;47.510;19.036;2022-07-26T05:11:56;28.90;36.50
35325;DHT22;35135;47.510;19.036;2022-07-26T05:14:28;28.90;36.30
35325;DHT22;35135;47.510;19.036;2022-07-26T05:16:56;28.90;35.90
35325;DHT22;35135;47.510;19.036;2022-07-26T05:19:24;28.80;35.80
35325;DHT22;35135;47.510;19.036;2022-07-26T05:21:58;28.90;35.80
35325;DHT22;35135;47.510;19.036;2022-07-26T05:24:27;28.90;35.90
35325;DHT22;35135;47.510;19.036;2022-07-26T05:26:56;28.90;35.80
35325;DHT22;35135;47.510;19.036;2022-07-26T05:29:24;28.90;35.80
35325;DHT22;35135;47.510;19.036;2022-07-26T05:31:55;28.90;36.00
35325;DHT22;35135;47.510;19.036;2022-07-26T05:34:24;28.90;36.00
35325;DHT22;35135;47.510;19.036;2022-07-26T05:36:53;28.90;36.10
35325;DHT22;35135;47.510;19.036;2022-07-26T05:39:25;29.00;36.10
35325;DHT22;35135;47.510;19.036;2022-07-26T05:41:55;29.00;36.20
35325;DHT22;35135;47.510;19.036;2022-07-26T05:44:23;29.00;36.20
35325;DHT22;35135;47.510;19.036;2022-07-26T05:47:13;29.00;36.70
35325;DHT22;35135;47.510;19.036;2022-07-26T05:49:45;29.00;36.60
35325;DHT22;35135;47.510;19.036;2022-07-26T05:52:14;29.00;36.90
35325;DHT22;35135;47.510;19.036;2022-07-26T05:54:43;29.00;36.90
35325;DHT22;35135;47.510;19.036;2022-07-26T05:57:12;29.00;36.90
35325;DHT22;35135;47.510;19.036;2022-07-26T05:59:38;29.00;36.60
35325;DHT22;35135;47.510;19.036;2022-07-26T06:02:04;29.00;36.70
35325;DHT22;35135;47.510;19.036;2022-07-26T06:04:34;29.10;36.80
35325;DHT22;35135;47.510;19.036;2022-07-26T06:07:03;29.10;36.80
35325;DHT22;35135;47.510;19.036;2022-07-26T06:09:33;29.10;36.80
35325;DHT22;35135;47.510;19.036;2022-07-26T06:12:03;29.10;36.80
35325;DHT22;35135;47.510;19.036;2022-07-26T06:14:33;29.10;36.80
35325;DHT22;35135;47.510;19.036;2022-07-26T06:17:02;29.10;36.90
35325;DHT22;35135;47.510;19.036;2022-07-26T06:19:31;29.10;37.00
35325;DHT22;35135;47.510;19.036;2022-07-26T06:22:00;29.10;37.30
35325;DHT22;35135;47.510;19.036;2022-07-26T06:24:28;29.10;38.10
35325;DHT22;35135;47.510;19.036;2022-07-26T06:27:02;29.10;37.90
35325;DHT22;35135;47.510;19.036;2022-07-26T06:29:28;29.20;38.10
35325;DHT22;35135;47.510;19.036;2022-07-26T06:31:56;29.20;38.40
35325;DHT22;35135;47.510;19.036;2022-07-26T06:34:26;29.20;38.70
35325;DHT22;35135;47.510;19.036;2022-07-26T06:36:55;29.20;38.70
35325;DHT22;35135;47.510;19.036;2022-07-26T06:39:23;29.20;38.90
35325;DHT22;35135;47.510;19.036;2022-07-26T06:41:55;29.20;38.80
35325;DHT22;35135;47.510;19.036;2022-07-26T06:44:29;29.20;38.80
35325;DHT22;35135;47.510;19.036;2022-07-26T06:46:57;29.20;39.10
35325;DHT22;35135;47.510;19.036;2022-07-26T06:49:29;29.20;39.20
35325;DHT22;35135;47.510;19.036;2022-07-26T06:52:01;29.30;38.90
35325;DHT22;35135;47.510;19.036;2022-07-26T06:54:31;29.30;39.10
35325;DHT22;35135;47.510;19.036;2022-07-26T06:57:00;29.30;39.50
35325;DHT22;35135;47.510;19.036;2022-07-26T06:59:29;29.30;39.30
35325;DHT22;35135;47.510;19.036;2022-07-26T07:02:00;29.30;39.20
35325;DHT22;35135;47.510;19.036;2022-07-26T07:04:38;29.30;39.10
35325;DHT22;35135;47.510;19.036;2022-07-26T07:07:06;29.30;39.20
35325;DHT22;35135;47.510;19.036;2022-07-26T07:09:36;29.30;39.10
35325;DHT22;35135;47.510;19.036;2022-07-26T07:12:05;29.30;39.10
35325;DHT22;35135;47.510;19.036;2022-07-26T07:14:35;29.30;39.20
35325;DHT22;35135;47.510;19.036;2022-07-26T07:17:03;29.40;39.40
35325;DHT22;35135;47.510;19.036;2022-07-26T07:19:33;29.30;39.30
35325;DHT22;35135;47.510;19.036;2022-07-26T07:22:02;29.40;39.40
35325;DHT22;35135;47.510;19.036;2022-07-26T07:24:29;29.40;39.50
35325;DHT22;35135;47.510;19.036;2022-07-26T07:27:03;29.40;39.50
35325;DHT22;35135;47.510;19.036;2022-07-26T07:29:32;29.40;39.50
35325;DHT22;35135;47.510;19.036;2022-07-26T07:32:00;29.40;39.80
35325;DHT22;35135;47.510;19.036;2022-07-26T07:34:28;29.40;39.90
35325;DHT22;35135;47.510;19.036;2022-07-26T07:36:56;29.40;40.10
35325;DHT22;35135;47.510;19.036;2022-07-26T07:39:25;29.40;40.10
35325;DHT22;35135;47.510;19.036;2022-07-26T07:41:54;29.50;40.40
35325;DHT22;35135;47.510;19.036;2022-07-26T07:44:23;29.50;40.20
35325;DHT22;35135;47.510;19.036;2022-07-26T07:46:51;29.50;40.40
35325;DHT22;35135;47.510;19.036;2022-07-26T07:49:27;29.50;40.90
35325;DHT22;35135;47.510;19.036;2022-07-26T07:51:54;29.50;40.20
35325;DHT22;35135;47.510;19.036;2022-07-26T07:54:28;29.50;40.30
35325;DHT22;35135;47.510;19.036;2022-07-26T07:56:56;29.50;40.20
35325;DHT22;35135;47.510;19.036;2022-07-26T07:59:24;29.50;40.40
35325;DHT22;35135;47.510;19.036;2022-07-26T08:01:53;29.50;40.50
35325;DHT22;35135;47.510;19.036;2022-07-26T08:04:25;29.50;40.70
35325;DHT22;35135;47.510;19.036;2022-07-26T08:06:53;29.60;41.00
35325;DHT22;35135;47.510;19.036;2022-07-26T08:09:22;29.60;40.90
35325;DHT22;35135;47.510;19.036;2022-07-26T08:11:49;29.60;40.80
35325;DHT22;35135;47.510;19.036;2022-07-26T08:14:17;29.60;40.70
35325;DHT22;35135;47.510;19.036;2022-07-26T08:16:47;29.60;40.60
35325;DHT22;35135;47.510;19.036;2022-07-26T08:19:16;29.60;40.70
35325;DHT22;35135;47.510;19.036;2022-07-26T08:21:54;29.60;41.00
35325;DHT22;35135;47.510;19.036;2022-07-26T08:24:22;29.60;40.90
35325;DHT22;35135;47.510;19.036;2022-07-26T08:26:52;29.60;41.80
35325;DHT22;35135;47.510;19.036;2022-07-26T08:29:27;29.70;41.60
35325;DHT22;35135;47.510;19.036;2022-07-26T08:31:56;29.70;41.30
35325;DHT22;35135;47.510;19.036;2022-07-26T08:34:24;29.70;40.90
35325;DHT22;35135;47.510;19.036;2022-07-26T08:36:51;29.70;41.20
35325;DHT22;35135;47.510;19.036;2022-07-26T08:39:18;29.70;41.20
35325;DHT22;35135;47.510;19.036;2022-07-26T08:41:46;29.70;41.20
35325;DHT22;35135;47.510;19.036;2022-07-26T08:44:15;29.70;41.50
35325;DHT22;35135;47.510;19.036;2022-07-26T08:46:45;29.70;41.20
35325;DHT22;35135;47.510;19.036;2022-07-26T08:49:14;29.80;40.80
35325;DHT22;35135;47.510;19.036;2022-07-26T08:51:43;29.70;40.80
35325;DHT22;35135;47.510;19.036;2022-07-26T08:54:17;29.80;40.90
35325;DHT22;35135;47.510;19.036;2022-07-26T08:56:51;29.70;41.40
35325;DHT22;35135;47.510;19.036;2022-07-26T08:59:20;29.80;41.60
35325;DHT22;35135;47.510;19.036;2022-07-26T09:02:02;29.80;41.40
35325;DHT22;35135;47.510;19.036;2022-07-26T09:04:32;29.80;41.60
35325;DHT22;35135;47.510;19.036;2022-07-26T09:10:00;29.80;41.70
35325;DHT22;35135;47.510;19.036;2022-07-26T09:12:30;29.80;41.50
35325;DHT22;35135;47.510;19.036;2022-07-26T09:15:02;29.80;41.40
35325;DHT22;35135;47.510;19.036;2022-07-26T09:17:48;29.80;41.50
35325;DHT22;35135;47.510;19.036;2022-07-26T09:20:19;29.80;41.10
35325;DHT22;35135;47.510;19.036;2022-07-26T09:23:04;29.80;41.10
35325;DHT22;35135;47.510;19.036;2022-07-26T09:25:43;29.90;41.10
35325;DHT22;35135;47.510;19.036;2022-07-26T09:28:26;29.90;41.00
35325;DHT22;35135;47.510;19.036;2022-07-26T09:31:04;29.90;41.00
35325;DHT22;35135;47.510;19.036;2022-07-26T09:33:49;29.90;41.20
35325;DHT22;35135;47.510;19.036;2022-07-26T09:36:17;29.90;41.00
35325;DHT22;35135;47.510;19.036;2022-07-26T09:38:48;29.90;40.90
35325;DHT22;35135;47.510;19.036;2022-07-26T09:41:23;29.90;41.50
35325;DHT22;35135;47.510;19.036;2022-07-26T09:43:56;30.00;41.00
35325;DHT22;35135;47.510;19.036;2022-07-26T09:46:25;29.90;41.10
35325;DHT22;35135;47.510;19.036;2022-07-26T09:48:55;29.90;41.00
35325;DHT22;35135;47.510;19.036;2022-07-26T09:51:44;29.90;41.60
35325;DHT22;35135;47.510;19.036;2022-07-26T09:56:51;30.00;42.50
35325;DHT22;35135;47.510;19.036;2022-07-26T09:59:22;30.00;42.70
35325;DHT22;35135;47.510;19.036;2022-07-26T10:01:50;30.00;42.90
35325;DHT22;35135;47.510;19.036;2022-07-26T10:04:20;30.00;43.10
35325;DHT22;35135;47.510;19.036;2022-07-26T10:06:53;30.00;42.90
35325;DHT22;35135;47.510;19.036;2022-07-26T10:09:47;30.00;43.60
35325;DHT22;35135;47.510;19.036;2022-07-26T10:12:23;30.00;44.00
35325;DHT22;35135;47.510;19.036;2022-07-26T10:14:59;30.00;44.30
35325;DHT22;35135;47.510;19.036;2022-07-26T10:17:40;30.00;44.00
35325;DHT22;35135;47.510;19.036;2022-07-26T10:20:39;30.00;44.30
35325;DHT22;35135;47.510;19.036;2022-07-26T10:26:04;30.00;44.60
35325;DHT22;35135;47.510;19.036;2022-07-26T10:28:33;30.00;45.10
35325;DHT22;35135;47.510;19.036;2022-07-26T10:31:24;30.00;45.40
35325;DHT22;35135;47.510;19.036;2022-07-26T10:33:55;30.10;45.30
35325;DHT22;35135;47.510;19.036;2022-07-26T10:36:32;30.00;45.90
35325;DHT22;35135;47.510;19.036;2022-07-26T10:39:11;30.10;46.10
35325;DHT22;35135;47.510;19.036;2022-07-26T10:41:43;30.10;46.70
35325;DHT22;35135;47.510;19.036;2022-07-26T10:44:21;30.10;46.70
35325;DHT22;35135;47.510;19.036;2022-07-26T10:52:17;30.10;47.10
35325;DHT22;35135;47.510;19.036;2022-07-26T10:57:31;30.10;46.60
35325;DHT22;35135;47.510;19.036;2022-07-26T10:59:59;30.10;47.20
35325;DHT22;35135;47.510;19.036;2022-07-26T11:02:30;30.10;47.40
35325;DHT22;35135;47.510;19.036;2022-07-26T11:05:15;30.10;47.50
35325;DHT22;35135;47.510;19.036;2022-07-26T11:08:01;30.10;47.60
35325;DHT22;35135;47.510;19.036;2022-07-26T11:10:40;30.10;48.30
35325;DHT22;35135;47.510;19.036;2022-07-26T11:13:20;30.10;48.10
35325;DHT22;35135;47.510;19.036;2022-07-26T11:16:08;30.10;48.10
35325;DHT22;35135;47.510;19.036;2022-07-26T11:18:37;30.20;47.70
35325;DHT22;35135;47.510;19.036;2022-07-26T11:21:16;30.10;48.20
35325;DHT22;35135;47.510;19.036;2022-07-26T11:23:47;30.20;48.10
35325;DHT22;35135;47.510;19.036;2022-07-26T11:26:22;30.20;48.30
35325;DHT22;35135;47.510;19.036;2022-07-26T11:29:00;30.20;48.40
35325;DHT22;35135;47.510;19.036;2022-07-26T11:31:36;30.20;48.00
35325;DHT22;35135;47.510;19.036;2022-07-26T11:34:06;30.20;48.20
35325;DHT22;35135;47.510;19.036;2022-07-26T11:36:43;30.20;47.90
35325;DHT22;35135;47.510;19.036;2022-07-26T11:39:14;30.20;48.10
35325;DHT22;35135;47.510;19.036;2022-07-26T11:41:43;30.20;48.20
35325;DHT22;35135;47.510;19.036;2022-07-26T11:44:19;30.20;48.30
35325;DHT22;35135;47.510;19.036;2022-07-26T11:46:47;30.20;47.70
35325;DHT22;35135;47.510;19.036;2022-07-26T11:49:23;30.20;48.00
35325;DHT22;35135;47.510;19.036;2022-07-26T11:51:57;30.20;48.20
35325;DHT22;35135;47.510;19.036;2022-07-26T11:54:29;30.20;48.10
35325;DHT22;35135;47.510;19.036;2022-07-26T11:57:01;30.20;48.40
35325;DHT22;35135;47.510;19.036;2022-07-26T11:59:32;30.20;48.40
35325;DHT22;35135;47.510;19.036;2022-07-26T12:02:02;30.20;48.40
35325;DHT22;35135;47.510;19.036;2022-07-26T12:04:41;30.20;48.00
35325;DHT22;35135;47.510;19.036;2022-07-26T12:07:16;30.20;47.50
35325;DHT22;35135;47.510;19.036;2022-07-26T12:09:49;30.20;47.50
35325;DHT22;35135;47.510;19.036;2022-07-26T12:12:22;30.30;47.60
35325;DHT22;35135;47.510;19.036;2022-07-26T12:15:00;30.20;47.80
35325;DHT22;35135;47.510;19.036;2022-07-26T12:17:30;30.30;47.40
35325;DHT22;35135;47.510;19.036;2022-07-26T12:20:18;30.30;47.70
35325;DHT22;35135;47.510;19.036;2022-07-26T12:22:56;30.30;47.50
35325;DHT22;35135;47.510;19.036;2022-07-26T12:25:27;30.30;47.90
35325;DHT22;35135;47.510;19.036;2022-07-26T12:27:57;30.30;48.00
35325;DHT22;35135;47.510;19.036;2022-07-26T12:30:25;30.30;48.00
35325;DHT22;35135;47.510;19.036;2022-07-26T12:33:00;30.30;48.00
35325;DHT22;35135;47.510;19.036;2022-07-26T12:35:31;30.30;47.80
35325;DHT22;35135;47.510;19.036;2022-07-26T12:38:07;30.30;48.00
35325;DHT22;35135;47.510;19.036;2022-07-26T12:40:44;30.30;47.80
35325;DHT22;35135;47.510;19.036;2022-07-26T12:43:13;30.30;47.60
35325;DHT22;35135;47.510;19.036;2022-07-26T12:45:46;30.30;47.90
35325;DHT22;35135;47.510;19.036;2022-07-26T12:48:15;30.30;47.90
35325;DHT22;35135;47.510;19.036;2022-07-26T12:50:44;30.30;48.00
35325;DHT22;35135;47.510;19.036;2022-07-26T12:53:15;30.30;47.90
35325;DHT22;35135;47.510;19.036;2022-07-26T12:55:43;30.30;47.80
35325;DHT22;35135;47.510;19.036;2022-07-26T12:58:12;30.30;48.00
35325;DHT22;35135;47.510;19.036;2022-07-26T13:00:39;30.30;47.90
35325;DHT22;35135;47.510;19.036;2022-07-26T13:03:08;30.40;47.90
35325;DHT22;35135;47.510;19.036;2022-07-26T13:05:38;30.30;47.60
35325;DHT22;35135;47.510;19.036;2022-07-26T13:08:05;30.30;47.70
35325;DHT22;35135;47.510;19.036;2022-07-26T13:10:34;30.30;47.80
35325;DHT22;35135;47.510;19.036;2022-07-26T13:13:04;30.30;47.90
35325;DHT22;35135;47.510;19.036;2022-07-26T13:15:32;30.40;47.90
35325;DHT22;35135;47.510;19.036;2022-07-26T13:18:01;30.40;47.70
35325;DHT22;35135;47.510;19.036;2022-07-26T13:20:30;30.40;47.70
35325;DHT22;35135;47.510;19.036;2022-07-26T13:22:58;30.40;47.60
35325;DHT22;35135;47.510;19.036;2022-07-26T13:25:27;30.40;47.90
35325;DHT22;35135;47.510;19.036;2022-07-26T13:27:56;30.40;47.80
35325;DHT22;35135;47.510;19.036;2022-07-26T13:30:24;30.40;48.00
35325;DHT22;35135;47.510;19.036;2022-07-26T13:32:53;30.40;47.90
35325;DHT22;35135;47.510;19.036;2022-07-26T13:35:22;30.30;47.80
35325;DHT22;35135;47.510;19.036;2022-07-26T13:37:51;30.40;48.00
35325;DHT22;35135;47.510;19.036;2022-07-26T13:40:19;30.40;47.90
35325;DHT22;35135;47.510;19.036;2022-07-26T13:42:49;30.40;47.80
35325;DHT22;35135;47.510;19.036;2022-07-26T13:45:18;30.40;48.60
35325;DHT22;35135;47.510;19.036;2022-07-26T13:47:45;30.30;49.00
35325;DHT22;35135;47.510;19.036;2022-07-26T13:50:20;30.30;49.70
35325;DHT22;35135;47.510;19.036;2022-07-26T13:52:47;30.20;49.20
35325;DHT22;35135;47.510;19.036;2022-07-26T13:55:15;30.20;49.40
35325;DHT22;35135;47.510;19.036;2022-07-26T13:57:44;30.20;50.00
35325;DHT22;35135;47.510;19.036;2022-07-26T14:00:14;30.10;50.10
35325;DHT22;35135;47.510;19.036;2022-07-26T14:02:47;30.10;50.10
35325;DHT22;35135;47.510;19.036;2022-07-26T14:05:16;30.10;50.30
35325;DHT22;35135;47.510;19.036;2022-07-26T14:07:45;30.00;50.50
35325;DHT22;35135;47.510;19.036;2022-07-26T14:10:19;30.00;51.10
35325;DHT22;35135;47.510;19.036;2022-07-26T14:12:46;30.00;50.70
35325;DHT22;35135;47.510;19.036;2022-07-26T14:15:14;30.00;51.10
35325;DHT22;35135;47.510;19.036;2022-07-26T14:17:43;30.00;51.20
35325;DHT22;35135;47.510;19.036;2022-07-26T14:20:12;29.90;51.10
35325;DHT22;35135;47.510;19.036;2022-07-26T14:22:40;29.90;51.00
35325;DHT22;35135;47.510;19.036;2022-07-26T14:25:09;29.90;50.80
35325;DHT22;35135;47.510;19.036;2022-07-26T14:27:38;29.90;50.80
35325;DHT22;35135;47.510;19.036;2022-07-26T14:30:06;29.90;50.90
35325;DHT22;35135;47.510;19.036;2022-07-26T14:32:31;29.90;50.70
35325;DHT22;35135;47.510;19.036;2022-07-26T14:35:03;29.90;51.20
35325;DHT22;35135;47.510;19.036;2022-07-26T14:37:32;29.80;51.60
35325;DHT22;35135;47.510;19.036;2022-07-26T14:40:01;29.80;51.30
35325;DHT22;35135;47.510;19.036;2022-07-26T14:42:28;29.80;51.30
35325;DHT22;35135;47.510;19.036;2022-07-26T14:44:56;29.80;51.20
35325;DHT22;35135;47.510;19.036;2022-07-26T14:47:25;29.80;51.00
35325;DHT22;35135;47.510;19.036;2022-07-26T14:49:54;29.80;51.20
35325;DHT22;35135;47.510;19.036;2022-07-26T14:52:23;29.80;51.10
35325;DHT22;35135;47.510;19.036;2022-07-26T14:54:51;29.80;51.20
35325;DHT22;35135;47.510;19.036;2022-07-26T14:57:25;29.80;51.20
35325;DHT22;35135;47.510;19.036;2022-07-26T14:59:58;29.70;51.30
35325;DHT22;35135;47.510;19.036;2022-07-26T15:02:28;29.70;51.20
35325;DHT22;35135;47.510;19.036;2022-07-26T15:05:01;29.80;51.10
35325;DHT22;35135;47.510;19.036;2022-07-26T15:07:28;29.70;51.00
35325;DHT22;35135;47.510;19.036;2022-07-26T15:09:55;29.70;50.80
35325;DHT22;35135;47.510;19.036;2022-07-26T15:12:29;29.70;50.60
35325;DHT22;35135;47.510;19.036;2022-07-26T15:14:58;29.80;50.90
35325;DHT22;35135;47.510;19.036;2022-07-26T15:17:33;29.70;50.80
35325;DHT22;35135;47.510;19.036;2022-07-26T15:20:02;29.70;50.60
35325;DHT22;35135;47.510;19.036;2022-07-26T15:22:32;29.80;50.40
35325;DHT22;35135;47.510;19.036;2022-07-26T15:25:06;29.80;50.50
35325;DHT22;35135;47.510;19.036;2022-07-26T15:27:35;29.80;50.80
35325;DHT22;35135;47.510;19.036;2022-07-26T15:30:04;29.80;50.80
35325;DHT22;35135;47.510;19.036;2022-07-26T15:32:36;29.80;50.90
35325;DHT22;35135;47.510;19.036;2022-07-26T15:35:04;29.80;51.30
35325;DHT22;35135;47.510;19.036;2022-07-26T15:37:37;29.80;52.10
35325;DHT22;35135;47.510;19.036;2022-07-26T15:40:10;29.80;51.50
35325;DHT22;35135;47.510;19.036;2022-07-26T15:42:45;29.80;51.40
35325;DHT22;35135;47.510;19.036;2022-07-26T15:45:17;29.80;51.30
35325;DHT22;35135;47.510;19.036;2022-07-26T15:47:44;29.80;51.50
35325;DHT22;35135;47.510;19.036;2022-07-26T15:50:15;29.80;51.60
35325;DHT22;35135;47.510;19.036;2022-07-26T15:52:45;29.80;51.50
35325;DHT22;35135;47.510;19.036;2022-07-26T15:55:14;29.80;51.30